• Join FlightAware (Why Join?)
  • Login
  • US Flag 
06:10AM EDT


 

Airport Tracker/Info


-or-


 

Live Flight TrackerFlight Track Log ✈ CJT574 ✈ 03-Jul-2013 ✈ CYEG - CYWG

Flight Track Log - Related Links

Times and Time Zones

All times are in EDT time to prevent confusion due to time zone crossing. See the CJT574 flight status page for this flight to view local times or setup timezone preferences in your user account.

Time Position Orientation Groundspeed Altitude Reporting Facility
EDT Latitude Longitude Course Direction KTS MPH feet Rate Location/Type
11:54PM 53.3000 -113.6333 310° West 160 184 3,300  Level Edmonton Center
11:55PM 53.3167 -113.6667 310° West 150 173 4,700 1,200 Climbing Edmonton Center
11:56PM 53.3500 -113.6167 42° Northeast 210 242 5,700 1,020 Climbing Edmonton Center
11:57PM 53.3333 -113.5000 103° East 250 288 6,800 1,500 Climbing Edmonton Center
11:58PM 53.3333 -113.3667 90° East 290 334 8,800 1,620 Climbing Edmonton Center
11:59PM 53.3000 -113.2167 110° East 320 368 10,100 960 Climbing Edmonton Center
12:00AM 53.3000 -113.0667 90° East 370 426 10,800 1,320 Climbing Edmonton Center
12:01AM 53.2833 -112.8667 98° East 410 472 12,800 2,100 Climbing Edmonton Center
12:02AM 53.2333 -112.6833 114° Southeast 400 460 15,100 1,560 Climbing Edmonton Center
12:03AM 53.2167 -112.4833 98° East 410 472 16,000 1,260 Climbing Edmonton Center
12:04AM 53.1833 -112.3167 108° East 440 506 17,700 1,800 Climbing Edmonton Center
12:05AM 53.1667 -112.1167 98° East 430 495 19,700 1,320 Climbing Edmonton Center
12:06AM 53.1167 -111.9000 111° Southeast 440 506 20,400 900 Climbing Edmonton Center
12:07AM 53.0833 -111.7000 105° East 460 529 21,500 1,500 Climbing Edmonton Center
12:08AM 53.0667 -111.4667 97° East 470 541 23,500 1,500 Climbing Edmonton Center
12:09AM 53.0167 -111.2667 112° Southeast 460 529 24,500 900 Climbing Edmonton Center
12:10AM 52.9833 -111.0667 105° East 480 552 25,400 900 Climbing Edmonton Center
12:11AM 52.9667 -110.8333 97° East 490 564 26,400 1,020 Climbing Edmonton Center
12:12AM 52.9000 -110.6000 115° Southeast 490 564 27,500 900 Climbing Edmonton Center
12:13AM 52.8833 -110.4000 98° East 500 575 28,200 780 Climbing Edmonton Center
12:14AM 52.8333 -110.1667 109° East 510 587 29,100 900 Climbing Edmonton Center
12:15AM 52.7833 -109.9500 111° Southeast 510 587 30,100 600 Climbing Edmonton Center
12:16AM 52.7500 -109.7167 103° East 510 587 30,400 480 Climbing Edmonton Center
12:17AM 52.7000 -109.4833 109° East 520 598 31,100 840 Climbing Edmonton Center
12:18AM 52.6667 -109.2333 102° East 530 610 32,100 780 Climbing Edmonton Center
12:19AM 52.6167 -109.0000 109° East 530 610 32,700 420 Climbing Edmonton Center
12:20AM 52.5833 -108.7833 104° East 530 610 33,000 120 Climbing Edmonton Center
12:21AM 52.5333 -108.5500 109° East 540 621 33,000  Level Edmonton Center
12:22AM 52.4667 -108.3000 114° Southeast 540 621 33,000  Level Edmonton Center
12:23AM 52.4333 -108.0667 103° East 540 621 33,000  Level Edmonton Center
12:24AM 52.3833 -107.8500 111° Southeast 530 610 33,000  Level Edmonton Center
12:25AM 52.3333 -107.5833 107° East 530 610 33,000  Level Edmonton Center
12:26AM 52.3000 -107.3667 104° East 530 610 33,000  Level Edmonton Center
12:27AM 52.2500 -107.1167 108° East 530 610 33,000  Level Edmonton Center
12:28AM 52.2000 -106.9167 112° Southeast 530 610 33,000  Level Edmonton Center
12:29AM 52.1500 -106.6667 108° East 540 621 33,000  Level Edmonton Center
12:30AM 52.1000 -106.4500 111° Southeast 540 621 33,000  Level Edmonton Center
12:31AM 52.0500 -106.2000 108° East 520 598 33,000  Level Edmonton Center
12:32AM 52.0167 -105.9833 104° East 520 598 33,000  Level Edmonton Center
12:33AM 51.9667 -105.7667 110° East 520 598 33,000  Level Edmonton Center
12:34AM 51.9167 -105.5333 109° East 520 598 33,000  Level Edmonton Center
12:35AM 51.8667 -105.3000 109° East 520 598 33,000  Level Edmonton Center
12:36AM 51.8333 -105.0667 103° East 520 598 33,000  Level Edmonton Center
12:37AM 51.7833 -104.8500 110° East 520 598 33,000  Level Edmonton Center
12:38AM 51.7333 -104.6333 110° East 520 598 33,000  Level Edmonton Center
12:39AM 51.6667 -104.4000 115° Southeast 520 598 33,000  Level Edmonton Center
12:40AM 51.6333 -104.2000 105° East 510 587 33,000  Level Edmonton Center
12:41AM 51.5833 -103.9833 110° East 510 587 33,000  Level Edmonton Center
12:42AM 51.5333 -103.7500 109° East 510 587 33,000  Level Edmonton Center
12:43AM 51.4833 -103.5333 110° East 510 587 33,000  Level Edmonton Center
12:44AM 51.4333 -103.3167 110° East 510 587 33,000  Level Edmonton Center
12:45AM 51.3833 -103.1000 110° East 510 587 33,000  Level Edmonton Center
12:46AM 51.3333 -102.8833 110° East 510 587 33,000  Level Edmonton Center
12:47AM 51.3000 -102.6667 104° East 500 575 33,000  Level Edmonton Center
12:48AM 51.2500 -102.4833 113° Southeast 500 575 33,000  Level Edmonton Center
12:49AM 51.2000 -102.2667 110° East 490 564 33,000  Level Edmonton Center
12:50AM 51.1500 -102.0667 112° Southeast 490 564 33,000  Level Edmonton Center
12:51AM 51.1000 -101.8500 110° East 490 564 33,000  Level Edmonton Center
12:52AM 51.0667 -101.6667 106° East 480 552 33,000  Level Edmonton Center
12:53AM 51.0167 -101.4500 110° East 480 552 33,000  Level Edmonton Center
12:54AM 50.9500 -101.2500 118° Southeast 480 552 33,000  Level Edmonton Center
12:55AM 50.9167 -101.0333 104° East 480 552 33,000  Level Edmonton Center
12:56AM 50.8667 -100.8667 115° Southeast 480 552 33,000  Level Edmonton Center
12:58AM 50.8167 -100.6000 106° East 490 564 33,000 -60 Level Winnipeg Center
12:59AM 50.7667 -100.4000 112° Southeast 490 564 32,900  Descending Winnipeg Center
01:00AM 50.7000 -100.1833 116° Southeast 500 575 33,000 60 Climbing Winnipeg Center
01:01AM 50.6667 -100.0000 106° East 510 587 33,100  Climbing Winnipeg Center
01:02AM 50.6000 -99.7833 116° Southeast 520 598 33,000 -60 Descending Winnipeg Center
01:03AM 50.5333 -99.5667 116° Southeast 520 598 33,000 -60 Level Winnipeg Center
01:04AM 50.4833 -99.3667 111° Southeast 510 587 32,900 -600 Descending Winnipeg Center
01:05AM 50.4333 -99.1667 111° Southeast 510 587 31,900 -1,680 Descending Winnipeg Center
01:06AM 50.3833 -98.9667 111° Southeast 480 552 29,600 -2,580 Descending Winnipeg Center
01:07AM 50.3333 -98.7667 111° Southeast 460 529 26,800 -3,000 Descending Winnipeg Center
01:08AM 50.2833 -98.5667 111° Southeast 470 541 23,600 -3,600 Descending Winnipeg Center
01:09AM 50.2500 -98.3833 106° East 470 541 19,700 -5,160 Descending Winnipeg Center
01:10AM 50.2000 -98.2167 115° Southeast 430 495 13,300 -4,500 Descending Winnipeg Center
01:11AM 50.1667 -98.0667 109° East 400 460 10,800 -2,160 Descending Winnipeg Center
01:12AM 50.1333 -97.9000 107° East 350 403 9,000 -2,100 Descending Winnipeg Center
01:13AM 50.1000 -97.7667 111° Southeast 340 391 6,700 -1,620 Descending Winnipeg Center
01:14AM 50.0667 -97.6500 114° Southeast 300 345 5,800 -1,200 Descending Winnipeg Center
01:15AM 50.0333 -97.5333 114° Southeast 280 322 4,300 -1,140 Descending Winnipeg Center
01:16AM 50.0167 -97.4333 105° East 250 288 3,600 -840 Descending Winnipeg Center
01:17AM 49.9833 -97.3500 122° Southeast 200 230 2,700 -900 Descending Winnipeg Center
01:18AM 49.9500 -97.3000 136° Southeast 150 173 1,900 -720 Descending Winnipeg Center
01:19AM 49.9167 -97.2833 162° South 130 150 1,300 -600 Descending Winnipeg Center
01:20AM 49.9000 -97.2333 117° Southeast 130 150 700 -600 Descending Winnipeg Center